Time;durP1;ratioP1;P1;durP2;ratioP2;P2;SDS_P1;SDS_P2;PMS_P1;PMS_P2;Temp;Humidity;BMP_temperature;BMP_pressure;BME280_temperature;BME280_humidity;BME280_pressure;Samples;Min_cycle;Max_cycle;Signal;HPM_P1;HPM_P2
2021/07/16 00:01:57;;;;;;;2.92;2.10;;;22.70;73.50;;;;;;5051976;28;20098;-61
2021/07/16 00:04:23;;;;;;;2.83;2.15;;;22.70;73.50;;;;;;5051802;28;20053;-62
2021/07/16 00:06:49;;;;;;;2.95;2.40;;;22.70;73.50;;;;;;5052130;28;20077;-62
2021/07/16 00:09:15;;;;;;;3.78;2.00;;;22.70;73.50;;;;;;5052440;28;20132;-61
2021/07/16 00:11:41;;;;;;;2.40;2.20;;;22.70;74.00;;;;;;5051255;28;20107;-60
2021/07/16 00:14:07;;;;;;;3.33;2.40;;;22.70;73.50;;;;;;5051107;28;20051;-60
2021/07/16 00:16:34;;;;;;;2.47;2.28;;;22.70;73.50;;;;;;5054754;28;20378;-62
2021/07/16 00:19:00;;;;;;;3.13;2.05;;;22.70;73.50;;;;;;5056023;28;20080;-60
2021/07/16 00:21:27;;;;;;;3.58;2.33;;;22.70;73.50;;;;;;5056145;28;20045;-61
2021/07/16 00:23:53;;;;;;;2.35;2.15;;;22.60;73.50;;;;;;5056292;28;20136;-62
2021/07/16 00:26:19;;;;;;;2.00;1.83;;;22.70;73.50;;;;;;5055561;28;20198;-61
2021/07/16 00:28:46;;;;;;;2.58;2.13;;;22.70;73.50;;;;;;5055646;28;20455;-62
2021/07/16 00:31:12;;;;;;;3.60;2.00;;;22.60;73.50;;;;;;5055596;28;20472;-61
2021/07/16 00:33:38;;;;;;;2.35;2.15;;;22.60;73.50;;;;;;5055908;28;20131;-61
2021/07/16 00:36:04;;;;;;;3.67;2.20;;;22.60;73.50;;;;;;5055732;28;20045;-60
2021/07/16 00:38:30;;;;;;;3.28;2.10;;;22.60;73.50;;;;;;5055698;28;20390;-61
2021/07/16 00:40:56;;;;;;;2.13;1.90;;;22.60;73.50;;;;;;5054955;28;20040;-60
2021/07/16 00:43:23;;;;;;;2.25;2.03;;;22.60;73.50;;;;;;5055465;28;20048;-62
2021/07/16 00:45:48;;;;;;;3.00;1.90;;;22.60;73.50;;;;;;5055822;28;20095;-61
2021/07/16 00:48:14;;;;;;;2.28;2.08;;;22.60;73.50;;;;;;5055347;28;20447;-61
2021/07/16 00:50:41;;;;;;;3.17;1.95;;;22.60;73.50;;;;;;5055370;28;20052;-61
2021/07/16 00:53:14;;;;;;;3.30;2.15;;;22.60;73.50;;;;;;5055560;28;20528;-62
2021/07/16 00:55:41;;;;;;;2.83;2.25;;;22.60;74.20;;;;;;5055399;28;20049;-60
2021/07/16 00:58:07;;;;;;;2.60;2.30;;;22.60;73.50;;;;;;5054797;28;20045;-63
2021/07/16 01:00:33;;;;;;;2.75;2.03;;;22.60;73.50;;;;;;5055418;28;20048;-61
2021/07/16 01:02:59;;;;;;;4.18;2.03;;;22.60;73.60;;;;;;5054957;28;20490;-62
2021/07/16 01:05:25;;;;;;;2.20;2.00;;;22.60;73.50;;;;;;5055355;28;20037;-61
2021/07/16 01:07:52;;;;;;;2.92;1.90;;;22.60;73.60;;;;;;5055210;28;20500;-62
2021/07/16 01:10:20;;;;;;;3.40;2.00;;;22.60;73.50;;;;;;5055060;28;20123;-62
2021/07/16 01:12:51;;;;;;;2.00;1.80;;;22.60;73.60;;;;;;5054448;28;20052;-62
2021/07/16 01:15:18;;;;;;;3.55;2.10;;;22.60;73.60;;;;;;5054840;28;20107;-61
2021/07/16 01:17:45;;;;;;;2.72;2.10;;;22.60;73.60;;;;;;5054940;28;20053;-62
2021/07/16 01:20:14;;;;;;;2.85;2.03;;;22.60;73.60;;;;;;5054145;28;20079;-61
2021/07/16 01:22:42;;;;;;;1.92;1.75;;;22.60;73.60;;;;;;5054523;28;20049;-61
2021/07/16 01:25:20;;;;;;;3.72;2.05;;;22.60;73.60;;;;;;5053602;28;20053;-61
2021/07/16 01:27:49;;;;;;;2.38;2.10;;;22.60;73.60;;;;;;5055043;28;20041;-61
2021/07/16 01:30:17;;;;;;;2.03;1.83;;;22.60;73.60;;;;;;5054019;28;20065;-60
2021/07/16 01:32:43;;;;;;;2.45;1.95;;;22.60;73.60;;;;;;5047551;28;20060;-62
2021/07/16 01:35:10;;;;;;;4.00;2.15;;;22.60;73.60;;;;;;5054790;28;20128;-61
2021/07/16 01:37:36;;;;;;;2.72;2.00;;;22.60;73.60;;;;;;5054966;28;20053;-62
2021/07/16 01:40:11;;;;;;;2.75;1.90;;;22.60;73.60;;;;;;5054280;28;20405;-61
2021/07/16 01:42:39;;;;;;;2.53;1.98;;;22.60;74.20;;;;;;5054414;28;20060;-61
2021/07/16 01:45:08;;;;;;;2.28;2.03;;;22.60;73.60;;;;;;5054354;28;20045;-61
2021/07/16 01:47:34;;;;;;;2.70;2.17;;;22.60;73.70;;;;;;5054550;28;20041;-61
2021/07/16 01:50:05;;;;;;;2.47;1.80;;;22.60;73.60;;;;;;5054461;28;20044;-61
2021/07/16 01:52:32;;;;;;;3.47;2.40;;;22.60;73.60;;;;;;5054298;28;20131;-61
2021/07/16 01:54:58;;;;;;;4.00;1.77;;;22.60;73.70;;;;;;5054415;28;20052;-61
2021/07/16 01:57:24;;;;;;;2.63;1.70;;;22.60;73.60;;;;;;5054598;28;20049;-60
2021/07/16 01:59:50;;;;;;;3.10;2.08;;;22.60;73.60;;;;;;5054113;28;20059;-61
2021/07/16 02:02:16;;;;;;;3.08;1.90;;;22.60;73.60;;;;;;5053813;28;20045;-61
2021/07/16 02:04:42;;;;;;;2.70;2.00;;;22.60;73.60;;;;;;5054248;28;20037;-61
2021/07/16 02:07:09;;;;;;;2.88;1.88;;;22.60;73.60;;;;;;5054415;28;20079;-60
2021/07/16 02:09:35;;;;;;;2.13;1.92;;;22.60;73.70;;;;;;5054204;28;20044;-61
2021/07/16 02:12:01;;;;;;;2.33;2.00;;;22.60;73.70;;;;;;5053677;28;20078;-61
2021/07/16 02:14:28;;;;;;;2.10;1.90;;;22.50;73.60;;;;;;5054186;28;20053;-61
2021/07/16 02:16:54;;;;;;;2.00;1.80;;;22.50;73.60;;;;;;5053243;28;20505;-61
2021/07/16 02:19:21;;;;;;;1.75;1.65;;;22.50;73.60;;;;;;5054034;28;20060;-61
2021/07/16 02:21:47;;;;;;;2.30;2.10;;;22.60;73.70;;;;;;5053751;28;20049;-58
2021/07/16 02:24:14;;;;;;;2.70;2.03;;;22.60;73.70;;;;;;5053510;28;20045;-61
2021/07/16 02:26:40;;;;;;;3.83;2.15;;;22.50;73.60;;;;;;5053857;28;20552;-62
2021/07/16 02:29:06;;;;;;;2.20;2.00;;;22.50;73.70;;;;;;5053607;28;20040;-61
2021/07/16 02:31:32;;;;;;;3.10;1.77;;;22.50;73.60;;;;;;5053412;28;20123;-61
2021/07/16 02:33:57;;;;;;;2.33;1.80;;;22.60;73.70;;;;;;5053099;28;20140;-62
2021/07/16 02:36:23;;;;;;;2.08;1.80;;;22.50;73.60;;;;;;5053327;28;20041;-61
2021/07/16 02:38:50;;;;;;;2.47;1.90;;;22.50;73.60;;;;;;5052907;28;20060;-61
2021/07/16 02:41:16;;;;;;;3.72;1.98;;;22.50;73.70;;;;;;5053737;28;20053;-60
2021/07/16 02:43:42;;;;;;;1.83;1.55;;;22.50;73.70;;;;;;5052764;28;20110;-61
2021/07/16 02:46:08;;;;;;;2.15;1.70;;;22.50;73.60;;;;;;5053717;28;20094;-60
2021/07/16 02:48:34;;;;;;;2.53;1.85;;;22.50;73.60;;;;;;5053033;28;20044;-61
2021/07/16 02:51:01;;;;;;;2.08;1.73;;;22.50;73.70;;;;;;5053405;28;20421;-61
2021/07/16 02:53:26;;;;;;;3.22;1.70;;;22.50;73.70;;;;;;5053065;28;20045;-60
2021/07/16 02:55:53;;;;;;;3.42;2.20;;;22.50;73.70;;;;;;5051980;28;20064;-61
2021/07/16 02:58:19;;;;;;;2.28;1.83;;;22.50;73.70;;;;;;5053124;28;20056;-61
2021/07/16 03:00:45;;;;;;;2.15;1.80;;;22.50;73.70;;;;;;5053415;28;20049;-60
2021/07/16 03:03:11;;;;;;;1.75;1.45;;;22.50;73.70;;;;;;5052214;28;20036;-61
2021/07/16 03:05:38;;;;;;;2.47;1.85;;;22.50;73.70;;;;;;5052990;28;20049;-60
2021/07/16 03:08:12;;;;;;;2.28;2.08;;;22.50;73.70;;;;;;5053090;28;20569;-60
2021/07/16 03:10:40;;;;;;;2.65;1.90;;;22.50;73.70;;;;;;5052966;28;20045;-59
2021/07/16 03:13:09;;;;;;;1.92;1.70;;;22.50;73.70;;;;;;5052831;28;20464;-61
2021/07/16 03:15:35;;;;;;;2.25;1.63;;;22.50;73.70;;;;;;5052352;28;20052;-61
2021/07/16 03:18:02;;;;;;;1.95;1.77;;;22.50;73.70;;;;;;5052544;28;20049;-60
2021/07/16 03:20:38;;;;;;;1.77;1.65;;;22.50;73.70;;;;;;5052730;28;20144;-62
2021/07/16 03:23:05;;;;;;;2.50;1.80;;;22.50;73.70;;;;;;5052943;28;20049;-60
2021/07/16 03:25:32;;;;;;;3.38;2.03;;;22.50;73.70;;;;;;5052094;28;20060;-60
2021/07/16 03:27:58;;;;;;;4.30;2.10;;;22.50;73.70;;;;;;5052755;28;20053;-62
2021/07/16 03:30:29;;;;;;;2.80;1.80;;;22.50;73.70;;;;;;5052366;28;20379;-61
2021/07/16 03:32:56;;;;;;;2.88;1.83;;;22.50;73.70;;;;;;5052230;28;20049;-62
2021/07/16 03:35:23;;;;;;;2.70;1.90;;;22.50;73.70;;;;;;5051012;28;20041;-62
2021/07/16 03:37:49;;;;;;;2.67;2.15;;;22.50;73.70;;;;;;5051233;28;20106;-61
2021/07/16 03:40:17;;;;;;;2.35;1.60;;;22.50;73.70;;;;;;5051479;28;20041;-60
2021/07/16 03:42:43;;;;;;;1.88;1.70;;;22.50;73.70;;;;;;5052242;28;20049;-62
2021/07/16 03:45:14;;;;;;;2.13;1.45;;;22.50;73.70;;;;;;5051961;28;20502;-61
2021/07/16 03:47:41;;;;;;;2.65;1.80;;;22.50;73.70;;;;;;5051187;28;20398;-61
2021/07/16 03:50:07;;;;;;;2.97;1.85;;;22.50;73.70;;;;;;5050406;28;20090;-61
2021/07/16 03:52:34;;;;;;;1.90;1.50;;;22.50;73.70;;;;;;5052457;28;20056;-61
2021/07/16 03:55:04;;;;;;;3.28;1.83;;;22.50;73.80;;;;;;5051922;28;20048;-61
2021/07/16 03:57:30;;;;;;;1.95;1.67;;;22.50;73.70;;;;;;5052176;28;20064;-59
2021/07/16 03:59:56;;;;;;;3.15;1.73;;;22.50;73.70;;;;;;5052343;28;20466;-61
2021/07/16 04:02:22;;;;;;;2.90;1.70;;;22.50;73.70;;;;;;5052070;28;20397;-61
2021/07/16 04:04:51;;;;;;;2.80;1.92;;;22.40;73.70;;;;;;5050526;28;20045;-62
2021/07/16 04:07:22;;;;;;;3.13;1.90;;;22.50;73.70;;;;;;5051740;28;20535;-61
2021/07/16 04:09:48;;;;;;;2.53;1.50;;;22.50;73.70;;;;;;5051721;28;20045;-61
2021/07/16 04:12:16;;;;;;;3.15;1.70;;;22.40;73.70;;;;;;5051906;28;20521;-61
2021/07/16 04:14:43;;;;;;;2.10;1.50;;;22.40;73.70;;;;;;5051755;28;20170;-62
2021/07/16 04:17:15;;;;;;;2.25;1.80;;;22.50;73.70;;;;;;5052291;28;20053;-62
2021/07/16 04:19:43;;;;;;;2.58;1.80;;;22.40;73.70;;;;;;5051809;28;20044;-60
2021/07/16 04:22:13;;;;;;;3.67;1.63;;;22.40;73.70;;;;;;5051625;28;20041;-62
2021/07/16 04:24:41;;;;;;;2.03;1.80;;;22.40;73.70;;;;;;5051812;28;20041;-61
2021/07/16 04:27:09;;;;;;;1.98;1.70;;;22.40;73.70;;;;;;5052052;28;20057;-62
2021/07/16 04:29:36;;;;;;;2.88;1.88;;;22.40;73.70;;;;;;5051796;28;20139;-60
2021/07/16 04:32:02;;;;;;;1.65;1.55;;;22.40;73.70;;;;;;5051954;28;20045;-61
2021/07/16 04:34:32;;;;;;;2.05;1.75;;;22.40;73.70;;;;;;5051734;28;20045;-60
2021/07/16 04:36:59;;;;;;;2.10;1.60;;;22.40;73.70;;;;;;5050504;28;20057;-61
2021/07/16 04:39:25;;;;;;;1.83;1.65;;;22.40;73.80;;;;;;5051384;28;20057;-60
2021/07/16 04:41:51;;;;;;;2.17;1.60;;;22.40;73.70;;;;;;5051252;28;20045;-61
2021/07/16 04:44:19;;;;;;;2.08;1.65;;;22.40;73.70;;;;;;5051832;28;20088;-61
2021/07/16 04:46:45;;;;;;;2.17;1.73;;;22.40;73.70;;;;;;5051612;28;20049;-63
2021/07/16 04:49:11;;;;;;;3.10;1.55;;;22.40;73.70;;;;;;5052132;28;20049;-61
2021/07/16 04:51:37;;;;;;;2.00;1.55;;;22.40;73.70;;;;;;5051348;28;20106;-61
2021/07/16 04:54:05;;;;;;;2.80;1.90;;;22.40;73.70;;;;;;5051297;28;20055;-61
2021/07/16 04:56:33;;;;;;;2.83;1.92;;;22.50;73.80;;;;;;5051467;28;20060;-59
2021/07/16 04:58:59;;;;;;;2.50;1.70;;;22.40;73.80;;;;;;5051851;28;20057;-60
2021/07/16 05:01:26;;;;;;;1.73;1.48;;;22.40;73.70;;;;;;5052153;28;20128;-59
2021/07/16 05:03:54;;;;;;;2.97;1.67;;;22.40;73.70;;;;;;5055366;28;20053;-62
2021/07/16 05:06:21;;;;;;;2.55;1.70;;;22.40;73.70;;;;;;5055334;28;20045;-61
2021/07/16 05:08:47;;;;;;;3.10;1.60;;;22.40;73.70;;;;;;5054669;28;20123;-59
2021/07/16 05:11:14;;;;;;;3.55;1.65;;;22.40;73.70;;;;;;5055678;28;20076;-62
2021/07/16 05:13:42;;;;;;;1.88;1.48;;;22.40;73.70;;;;;;5055197;28;20075;-60
2021/07/16 05:16:10;;;;;;;3.22;1.90;;;22.40;73.70;;;;;;5054761;28;20041;-62
2021/07/16 05:18:36;;;;;;;3.47;1.83;;;22.40;73.70;;;;;;5053886;28;20493;-60
2021/07/16 05:21:04;;;;;;;1.95;1.75;;;22.40;73.70;;;;;;5055150;28;20048;-59
2021/07/16 05:23:30;;;;;;;1.98;1.50;;;22.40;73.80;;;;;;5054163;28;20076;-60
2021/07/16 05:25:56;;;;;;;3.55;1.50;;;22.40;73.70;;;;;;5054242;28;20478;-59
2021/07/16 05:28:22;;;;;;;2.95;1.88;;;22.40;73.70;;;;;;5054934;28;20037;-60
2021/07/16 05:30:48;;;;;;;2.20;1.50;;;22.40;73.70;;;;;;5054994;28;20049;-61
2021/07/16 05:33:14;;;;;;;2.33;1.65;;;22.30;73.70;;;;;;5054798;28;20049;-60
2021/07/16 05:35:40;;;;;;;2.97;1.98;;;22.40;73.70;;;;;;5054151;28;20090;-60
2021/07/16 05:38:08;;;;;;;1.50;1.38;;;22.40;73.70;;;;;;5054328;28;20063;-60
2021/07/16 05:40:35;;;;;;;2.92;1.90;;;22.40;73.80;;;;;;5053244;28;20052;-61
2021/07/16 05:43:08;;;;;;;2.33;1.80;;;22.40;73.70;;;;;;5054941;28;20052;-59
2021/07/16 05:45:35;;;;;;;2.28;1.55;;;22.40;73.80;;;;;;5054590;28;20037;-62
2021/07/16 05:48:03;;;;;;;2.58;1.70;;;22.40;73.70;;;;;;5053828;28;20509;-60
2021/07/16 05:50:29;;;;;;;3.95;1.80;;;22.40;73.80;;;;;;5053810;28;20072;-59
2021/07/16 05:52:55;;;;;;;3.55;1.88;;;22.40;73.80;;;;;;5054403;28;20072;-62
2021/07/16 05:55:21;;;;;;;2.70;1.60;;;22.40;73.70;;;;;;5054222;28;20079;-62
2021/07/16 05:57:47;;;;;;;1.90;1.65;;;22.40;73.70;;;;;;5039302;28;20081;-62
2021/07/16 06:00:13;;;;;;;3.25;1.55;;;22.40;73.80;;;;;;5034440;28;20462;-61
2021/07/16 06:02:39;;;;;;;1.67;1.30;;;22.40;73.70;;;;;;5034676;28;20061;-61
2021/07/16 06:05:05;;;;;;;2.25;1.80;;;22.40;73.80;;;;;;5034254;28;20550;-62
2021/07/16 06:07:31;;;;;;;1.98;1.50;;;22.40;73.80;;;;;;5046305;28;20045;-61
2021/07/16 06:09:57;;;;;;;1.80;1.48;;;22.40;73.80;;;;;;5054426;28;20106;-62
2021/07/16 06:12:23;;;;;;;2.72;1.80;;;22.40;73.80;;;;;;5053673;28;20045;-61
2021/07/16 06:14:56;;;;;;;2.17;1.50;;;22.40;73.80;;;;;;5053467;28;20139;-62
2021/07/16 06:17:26;;;;;;;2.45;1.60;;;22.40;73.80;;;;;;5053318;28;20442;-58
2021/07/16 06:19:52;;;;;;;2.55;1.67;;;22.40;73.70;;;;;;5053208;28;20052;-62
2021/07/16 06:22:18;;;;;;;3.05;1.90;;;22.40;73.80;;;;;;5053727;28;20041;-61
2021/07/16 06:24:44;;;;;;;2.45;1.70;;;22.40;73.80;;;;;;5054035;28;20401;-61
2021/07/16 06:27:10;;;;;;;3.03;1.70;;;22.40;73.80;;;;;;5053007;28;20033;-62
2021/07/16 06:29:37;;;;;;;2.33;1.30;;;22.40;73.80;;;;;;5053810;28;20405;-62
2021/07/16 06:32:03;;;;;;;2.97;1.65;;;22.30;73.70;;;;;;5053982;28;20053;-63
2021/07/16 06:34:29;;;;;;;2.63;1.63;;;22.40;73.80;;;;;;5053256;28;20049;-62
2021/07/16 06:36:55;;;;;;;2.42;1.95;;;22.40;73.80;;;;;;5053405;28;20056;-62
2021/07/16 06:39:21;;;;;;;3.20;1.77;;;22.40;73.80;;;;;;5053408;28;20049;-62
2021/07/16 06:41:47;;;;;;;1.50;1.30;;;22.40;73.80;;;;;;5053394;28;20041;-62
2021/07/16 06:44:14;;;;;;;1.95;1.42;;;22.40;73.80;;;;;;5053038;28;20049;-62
2021/07/16 06:46:40;;;;;;;2.17;1.45;;;22.40;73.80;;;;;;5052811;28;20053;-62
2021/07/16 06:49:06;;;;;;;3.25;1.75;;;22.40;73.80;;;;;;5053428;28;20045;-63
2021/07/16 06:51:33;;;;;;;2.25;1.50;;;22.40;73.80;;;;;;5052953;28;20500;-62
2021/07/16 06:53:59;;;;;;;1.73;1.60;;;22.40;73.80;;;;;;5053347;28;20098;-62
2021/07/16 06:56:24;;;;;;;2.55;1.80;;;22.40;73.80;;;;;;5052536;28;20049;-61
2021/07/16 06:58:52;;;;;;;2.67;1.70;;;22.40;73.80;;;;;;5052905;28;20191;-63
2021/07/16 07:01:19;;;;;;;2.33;1.38;;;22.40;73.80;;;;;;5053081;28;20044;-62
2021/07/16 07:03:45;;;;;;;2.45;1.60;;;22.40;74.40;;;;;;5053392;28;20136;-62
2021/07/16 07:06:10;;;;;;;2.13;1.50;;;22.40;73.80;;;;;;5053363;28;20175;-60
2021/07/16 07:08:36;;;;;;;3.65;1.80;;;22.40;73.80;;;;;;5051088;28;20056;-61
2021/07/16 07:11:02;;;;;;;3.00;1.70;;;22.40;73.80;;;;;;5053116;28;20048;-62
2021/07/16 07:13:28;;;;;;;2.50;1.50;;;22.40;73.70;;;;;;5052822;28;20098;-63
2021/07/16 07:15:53;;;;;;;2.65;1.42;;;22.40;73.80;;;;;;5052733;28;20076;-62
2021/07/16 07:18:19;;;;;;;2.00;1.70;;;22.40;73.80;;;;;;5052611;28;20395;-62
2021/07/16 07:20:45;;;;;;;2.08;1.48;;;22.40;73.80;;;;;;5052791;28;20060;-62
2021/07/16 07:23:11;;;;;;;2.03;1.30;;;22.40;73.80;;;;;;5052762;28;20047;-61
2021/07/16 07:25:36;;;;;;;3.83;1.92;;;22.30;73.70;;;;;;5052868;28;20053;-63
2021/07/16 07:28:03;;;;;;;2.00;1.42;;;22.30;73.70;;;;;;5051946;28;20482;-62
2021/07/16 07:30:29;;;;;;;2.10;1.42;;;22.40;73.80;;;;;;5052249;28;20413;-62
2021/07/16 07:32:55;;;;;;;3.03;1.50;;;22.40;73.70;;;;;;5052687;28;20049;-61
2021/07/16 07:35:21;;;;;;;1.88;1.40;;;22.40;73.80;;;;;;5052568;28;20049;-61
2021/07/16 07:37:47;;;;;;;1.88;1.35;;;22.30;73.70;;;;;;5051856;28;20091;-62
2021/07/16 07:40:16;;;;;;;2.92;1.80;;;22.30;73.70;;;;;;5052404;28;20062;-60
2021/07/16 07:42:44;;;;;;;2.58;1.38;;;22.40;73.80;;;;;;5052249;28;20489;-61
2021/07/16 07:45:10;;;;;;;2.97;1.63;;;22.40;73.80;;;;;;5051719;28;20614;-60
2021/07/16 07:47:36;;;;;;;18.90;5.05;;;22.30;73.70;;;;;;5050647;28;20456;-60
2021/07/16 07:50:08;;;;;;;10.18;2.75;;;22.40;73.10;;;;;;5052114;28;20098;-61
2021/07/16 07:52:34;;;;;;;8.73;2.70;;;22.30;72.80;;;;;;5051968;28;20120;-59
2021/07/16 07:55:00;;;;;;;8.07;2.50;;;22.20;72.90;;;;;;5051972;28;20459;-59
2021/07/16 07:57:26;;;;;;;6.63;2.50;;;22.30;73.10;;;;;;5052389;28;20051;-56
2021/07/16 07:59:51;;;;;;;8.15;2.63;;;22.20;73.10;;;;;;5051896;28;20044;-59
2021/07/16 08:02:18;;;;;;;7.22;2.42;;;22.30;73.30;;;;;;5052088;28;20044;-60
2021/07/16 08:04:43;;;;;;;6.40;2.28;;;22.30;73.90;;;;;;5052130;28;20091;-59
2021/07/16 08:07:09;;;;;;;6.00;2.20;;;22.30;73.30;;;;;;5051772;28;20103;-57
2021/07/16 08:09:35;;;;;;;6.90;2.47;;;22.30;73.40;;;;;;5051850;28;20056;-56
2021/07/16 08:12:03;;;;;;;7.47;2.65;;;22.30;73.40;;;;;;5052222;28;20056;-59
2021/07/16 08:14:29;;;;;;;6.35;2.67;;;22.30;73.40;;;;;;5052527;28;20049;-58
2021/07/16 08:16:55;;;;;;;6.63;2.75;;;22.30;73.40;;;;;;5050715;28;20048;-60
2021/07/16 08:19:21;;;;;;;5.93;2.33;;;22.30;73.50;;;;;;5051912;28;20059;-55
2021/07/16 08:21:48;;;;;;;6.97;2.47;;;22.30;73.50;;;;;;5051922;28;20049;-58
2021/07/16 08:24:14;;;;;;;8.48;2.92;;;22.30;73.50;;;;;;5051582;28;20045;-57
2021/07/16 08:26:41;;;;;;;7.55;2.55;;;22.30;73.50;;;;;;5051803;28;20049;-56
2021/07/16 08:29:08;;;;;;;15.77;4.25;;;22.30;73.50;;;;;;5051888;28;20040;-55
2021/07/16 08:31:34;;;;;;;14.75;4.00;;;22.30;72.90;;;;;;5051239;28;20041;-55
2021/07/16 08:34:00;;;;;;;9.10;3.80;;;22.20;72.80;;;;;;5050607;28;20045;-49
2021/07/16 08:36:26;;;;;;;10.23;3.67;;;22.20;72.90;;;;;;5052217;28;20136;-51
2021/07/16 08:38:52;;;;;;;10.32;3.28;;;22.20;73.00;;;;;;5055396;28;20143;-48
2021/07/16 08:41:17;;;;;;;10.18;3.58;;;22.20;73.20;;;;;;5055761;28;20056;-46
2021/07/16 08:43:44;;;;;;;8.75;3.88;;;22.10;73.20;;;;;;5055967;28;20421;-50
2021/07/16 08:46:11;;;;;;;10.15;3.65;;;22.20;73.20;;;;;;5055430;28;20076;-51
2021/07/16 08:48:38;;;;;;;7.30;3.20;;;22.20;73.30;;;;;;5052281;28;20052;-50
2021/07/16 08:51:04;;;;;;;7.72;3.30;;;22.20;73.40;;;;;;5055705;28;20085;-46
2021/07/16 08:53:32;;;;;;;9.77;3.45;;;22.10;73.40;;;;;;5054432;28;20081;-50
2021/07/16 08:55:57;;;;;;;6.18;2.92;;;22.20;73.50;;;;;;5048807;28;20049;-52
2021/07/16 08:58:23;;;;;;;6.68;2.95;;;22.20;73.50;;;;;;5054533;28;20493;-53
2021/07/16 09:00:50;;;;;;;5.95;2.78;;;22.20;73.50;;;;;;5055360;28;20091;-52
2021/07/16 09:03:16;;;;;;;7.75;2.95;;;22.20;73.60;;;;;;5053557;28;20045;-48
2021/07/16 09:05:44;;;;;;;8.63;3.03;;;22.20;73.60;;;;;;5055257;28;20068;-52
2021/07/16 09:08:16;;;;;;;8.57;3.20;;;22.20;73.60;;;;;;5053884;28;20813;-52
2021/07/16 09:10:46;;;;;;;7.50;3.15;;;22.20;73.70;;;;;;5054306;28;20128;-51
2021/07/16 09:13:13;;;;;;;7.80;3.08;;;22.20;73.70;;;;;;5055148;28;20068;-50
2021/07/16 09:15:39;;;;;;;7.05;2.80;;;22.20;73.70;;;;;;5055060;28;20045;-49
2021/07/16 09:18:37;;;;;;;6.07;2.53;;;22.20;73.70;;;;;;5053742;28;20044;-50
2021/07/16 09:21:02;;;;;;;6.72;3.15;;;22.20;73.60;;;;;;5054420;28;20815;-50
2021/07/16 09:23:37;;;;;;;6.90;3.00;;;22.20;73.70;;;;;;5055073;28;20080;-51
2021/07/16 09:26:27;;;;;;;6.68;2.53;;;22.20;73.70;;;;;;5054490;28;20103;-49
2021/07/16 09:28:56;;;;;;;7.18;2.90;;;22.20;73.70;;;;;;5044145;28;20534;-48
2021/07/16 09:31:24;;;;;;;7.78;2.80;;;22.20;73.70;;;;;;5054997;28;20128;-50
2021/07/16 09:33:52;;;;;;;6.18;3.05;;;22.20;73.70;;;;;;5054015;28;20390;-46
2021/07/16 09:36:38;;;;;;;6.25;2.45;;;22.20;73.70;;;;;;5053985;28;20049;-49
2021/07/16 09:39:14;;;;;;;4.75;2.63;;;22.30;73.70;;;;;;5054614;28;20128;-47
2021/07/16 09:41:51;;;;;;;7.15;2.60;;;22.20;73.70;;;;;;5054037;28;20059;-50
2021/07/16 09:44:28;;;;;;;6.00;2.97;;;22.20;73.70;;;;;;5054401;28;20056;-50
2021/07/16 09:47:13;;;;;;;5.55;2.90;;;22.30;73.70;;;;;;5054237;28;20052;-50
2021/07/16 09:49:43;;;;;;;6.37;2.63;;;22.30;73.70;;;;;;5053012;28;20504;-59
2021/07/16 09:52:15;;;;;;;5.13;2.67;;;22.20;73.60;;;;;;5054318;28;20295;-59
2021/07/16 09:55:09;;;;;;;6.03;2.35;;;22.30;73.70;;;;;;5053910;28;20048;-55
2021/07/16 09:57:47;;;;;;;5.78;2.78;;;22.30;73.70;;;;;;5053642;28;20554;-58
2021/07/16 10:00:21;;;;;;;4.60;2.13;;;22.30;73.70;;;;;;5054620;28;20045;-58
2021/07/16 10:02:58;;;;;;;4.60;2.40;;;22.30;73.70;;;;;;5053404;28;20048;-58
2021/07/16 10:05:24;;;;;;;7.03;2.63;;;22.30;73.70;;;;;;5054080;28;20382;-57
2021/07/16 10:07:51;;;;;;;6.07;2.47;;;22.30;73.70;;;;;;5053177;28;20075;-59
2021/07/16 10:10:22;;;;;;;5.53;2.40;;;22.30;73.70;;;;;;5053252;28;20397;-59
2021/07/16 10:12:49;;;;;;;5.32;2.13;;;22.30;73.70;;;;;;5054300;28;20067;-59
2021/07/16 10:15:17;;;;;;;5.68;2.38;;;22.30;73.70;;;;;;5053617;28;20049;-58
2021/07/16 10:17:43;;;;;;;4.22;2.38;;;22.30;73.60;;;;;;5039450;28;20106;-49
2021/07/16 10:20:15;;;;;;;4.35;2.28;;;22.30;73.90;;;;;;5053959;28;20048;-49
2021/07/16 10:22:42;;;;;;;5.28;2.40;;;22.30;73.70;;;;;;5053514;28;20485;-50
2021/07/16 10:25:10;;;;;;;5.18;2.42;;;22.30;73.60;;;;;;5053498;28;20080;-45
2021/07/16 10:27:39;;;;;;;5.57;2.50;;;22.30;73.60;;;;;;5052645;28;20076;-59
2021/07/16 10:30:15;;;;;;;5.38;2.40;;;22.30;73.60;;;;;;5053273;28;20059;-49
2021/07/16 10:32:54;;;;;;;4.13;2.40;;;22.30;73.60;;;;;;5052937;28;20072;-54
2021/07/16 10:35:20;;;;;;;4.28;2.22;;;22.30;73.60;;;;;;5053757;28;20516;-51
2021/07/16 10:37:47;;;;;;;3.95;2.20;;;22.30;73.60;;;;;;5051904;28;20037;-48
2021/07/16 10:40:36;;;;;;;3.85;2.40;;;22.30;73.50;;;;;;5052704;28;20128;-53
2021/07/16 10:43:04;;;;;;;3.28;2.03;;;22.30;73.50;;;;;;5053316;28;20053;-49
2021/07/16 10:45:38;;;;;;;2.80;1.95;;;22.30;73.60;;;;;;5053243;28;20052;-47
2021/07/16 10:48:12;;;;;;;4.50;2.70;;;22.30;73.50;;;;;;5052068;28;20122;-51
2021/07/16 10:50:38;;;;;;;5.53;2.65;;;22.30;73.50;;;;;;5053344;28;20044;-52
2021/07/16 10:53:14;;;;;;;3.85;2.25;;;22.30;73.50;;;;;;5050431;28;20044;-50
2021/07/16 10:55:40;;;;;;;3.40;1.95;;;22.30;73.50;;;;;;5050429;28;20049;-47
2021/07/16 10:58:30;;;;;;;6.38;2.72;;;22.30;73.50;;;;;;5051698;28;20489;-50
2021/07/16 11:01:03;;;;;;;5.10;2.50;;;22.30;73.40;;;;;;5028403;28;20140;-51
2021/07/16 11:03:45;;;;;;;4.72;2.03;;;22.30;73.50;;;;;;5005608;28;20064;-48
2021/07/16 11:06:15;;;;;;;4.88;2.28;;;22.30;73.50;;;;;;5007386;28;20058;-48
2021/07/16 11:08:41;;;;;;;4.28;2.45;;;22.30;73.50;;;;;;5011919;28;20081;-50
2021/07/16 11:11:16;;;;;;;3.35;2.25;;;22.30;73.40;;;;;;5010431;28;20124;-50
2021/07/16 11:13:44;;;;;;;3.55;1.90;;;22.30;73.40;;;;;;5026600;28;20049;-50
2021/07/16 11:16:19;;;;;;;3.88;1.90;;;22.30;73.40;;;;;;5026363;28;20424;-47
2021/07/16 11:19:04;;;;;;;3.83;2.00;;;22.30;73.40;;;;;;5023100;28;20461;-50
2021/07/16 11:21:52;;;;;;;3.53;2.33;;;22.30;73.40;;;;;;5010917;28;20092;-52
2021/07/16 11:24:40;;;;;;;3.85;1.70;;;22.30;73.40;;;;;;5010010;28;20153;-53
2021/07/16 11:27:09;;;;;;;2.97;2.00;;;22.30;73.40;;;;;;5008571;28;20062;-51
2021/07/16 11:29:39;;;;;;;5.05;2.22;;;22.30;73.40;;;;;;5011805;28;20188;-53
2021/07/16 11:32:05;;;;;;;2.95;1.90;;;22.30;73.40;;;;;;5009726;28;20499;-48
2021/07/16 11:34:31;;;;;;;2.90;1.88;;;22.30;73.40;;;;;;5010943;28;20088;-52
2021/07/16 11:36:57;;;;;;;2.80;1.90;;;22.30;73.40;;;;;;5014777;28;20046;-47
2021/07/16 11:39:33;;;;;;;3.97;1.90;;;22.40;73.40;;;;;;5049812;28;20159;-48
2021/07/16 11:42:00;;;;;;;4.28;2.63;;;22.40;73.40;;;;;;5052685;28;20410;-48
2021/07/16 11:44:31;;;;;;;4.57;2.28;;;22.40;73.40;;;;;;5052546;28;20456;-55
2021/07/16 11:46:59;;;;;;;3.38;1.83;;;22.40;73.40;;;;;;5051680;28;20060;-50
2021/07/16 11:49:27;;;;;;;2.88;1.77;;;22.40;73.40;;;;;;5051553;28;20041;-44
2021/07/16 11:52:01;;;;;;;14.35;4.82;;;22.40;73.40;;;;;;5052354;28;20477;-49
2021/07/16 11:54:29;;;;;;;13.43;4.30;;;22.40;73.10;;;;;;5051447;28;20045;-51
2021/07/16 11:56:59;;;;;;;10.73;4.22;;;22.30;73.00;;;;;;5051776;28;20049;-45
2021/07/16 11:59:27;;;;;;;7.07;4.00;;;22.30;73.00;;;;;;5051253;28;20394;-52
2021/07/16 12:02:12;;;;;;;10.70;4.40;;;22.30;73.00;;;;;;5051382;28;20480;-47
2021/07/16 12:04:40;;;;;;;6.10;3.05;;;22.30;73.00;;;;;;5049617;28;20049;-45
2021/07/16 12:07:07;;;;;;;16.15;5.95;;;22.30;73.00;;;;;;5052566;28;20128;-45
2021/07/16 12:09:44;;;;;;;20.13;6.18;;;22.30;72.50;;;;;;5050692;28;20443;-45
2021/07/16 12:12:11;;;;;;;19.65;6.57;;;22.30;72.40;;;;;;5050865;28;20124;-45
2021/07/16 12:15:15;;;;;;;14.15;6.07;;;22.30;72.40;;;;;;5052354;28;20041;-42
2021/07/16 12:17:50;;;;;;;11.00;5.13;;;22.30;72.30;;;;;;5009960;28;20127;-47
2021/07/16 12:20:17;;;;;;;15.65;5.55;;;22.30;72.40;;;;;;5009170;28;20089;-50
2021/07/16 12:22:44;;;;;;;12.10;5.07;;;22.30;72.40;;;;;;5002413;28;20062;-45
2021/07/16 12:25:11;;;;;;;14.10;6.10;;;22.30;72.40;;;;;;4990265;28;20054;-51
2021/07/16 12:27:39;;;;;;;21.90;5.97;;;22.30;72.40;;;;;;4989979;28;20073;-57
2021/07/16 12:30:13;;;;;;;14.32;5.80;;;22.30;72.40;;;;;;4994795;28;20103;-48
2021/07/16 12:32:42;;;;;;;14.55;5.93;;;22.30;72.40;;;;;;5009873;28;20383;-57
2021/07/16 12:35:26;;;;;;;11.55;5.50;;;22.30;72.40;;;;;;5010086;28;20054;-57
2021/07/16 12:37:59;;;;;;;11.70;5.20;;;22.30;72.40;;;;;;5008815;28;20413;-56
2021/07/16 12:40:25;;;;;;;13.05;5.50;;;22.40;72.50;;;;;;5008964;28;20229;-57
2021/07/16 12:43:19;;;;;;;9.68;4.85;;;22.30;72.50;;;;;;5005411;28;20140;-58
2021/07/16 12:45:48;;;;;;;11.30;4.95;;;22.40;72.50;;;;;;4931730;29;20122;-56
2021/07/16 12:48:32;;;;;;;11.68;5.00;;;22.40;72.50;;;;;;4932324;29;20064;-54
2021/07/16 12:51:12;;;;;;;13.45;5.00;;;22.40;72.50;;;;;;4949027;29;20063;-52
2021/07/16 12:53:43;;;;;;;8.38;4.68;;;22.40;72.50;;;;;;4951261;28;20571;-45